sensor_id;sensor_type;location;lat;lon;timestamp;temperature;humidity
54006;DHT22;39919;38.160;-122.260;2023-03-23T00:00:53;18.10;92.40
54006;DHT22;39919;38.160;-122.260;2023-03-23T00:03:22;18.00;92.20
54006;DHT22;39919;38.160;-122.260;2023-03-23T00:05:57;18.00;91.90
54006;DHT22;39919;38.160;-122.260;2023-03-23T00:08:33;18.00;99.90
54006;DHT22;39919;38.160;-122.260;2023-03-23T00:11:06;18.00;99.90
54006;DHT22;39919;38.160;-122.260;2023-03-23T00:13:35;17.90;97.60
54006;DHT22;39919;38.160;-122.260;2023-03-23T00:16:04;17.90;97.30
54006;DHT22;39919;38.160;-122.260;2023-03-23T00:18:45;17.80;99.90
54006;DHT22;39919;38.160;-122.260;2023-03-23T00:21:16;17.70;99.90
54006;DHT22;39919;38.160;-122.260;2023-03-23T00:23:47;17.60;93.50
54006;DHT22;39919;38.160;-122.260;2023-03-23T00:26:21;17.40;90.90
54006;DHT22;39919;38.160;-122.260;2023-03-23T00:28:50;17.40;91.20
54006;DHT22;39919;38.160;-122.260;2023-03-23T00:31:19;17.30;91.50
54006;DHT22;39919;38.160;-122.260;2023-03-23T00:33:49;17.20;91.60
54006;DHT22;39919;38.160;-122.260;2023-03-23T00:36:18;17.10;91.60
54006;DHT22;39919;38.160;-122.260;2023-03-23T00:38:50;17.10;91.40
54006;DHT22;39919;38.160;-122.260;2023-03-23T00:41:20;17.00;91.50
54006;DHT22;39919;38.160;-122.260;2023-03-23T00:43:50;17.00;94.10
54006;DHT22;39919;38.160;-122.260;2023-03-23T00:46:19;17.50;93.10
54006;DHT22;39919;38.160;-122.260;2023-03-23T00:48:49;16.80;91.80
54006;DHT22;39919;38.160;-122.260;2023-03-23T00:51:18;16.80;92.10
54006;DHT22;39919;38.160;-122.260;2023-03-23T00:53:47;16.70;92.80
54006;DHT22;39919;38.160;-122.260;2023-03-23T00:56:17;16.70;94.60
54006;DHT22;39919;38.160;-122.260;2023-03-23T00:58:47;17.00;99.90
54006;DHT22;39919;38.160;-122.260;2023-03-23T01:01:19;16.60;99.90
54006;DHT22;39919;38.160;-122.260;2023-03-23T01:03:48;16.50;99.90
54006;DHT22;39919;38.160;-122.260;2023-03-23T01:06:19;16.50;99.90
54006;DHT22;39919;38.160;-122.260;2023-03-23T01:08:48;16.40;99.90
54006;DHT22;39919;38.160;-122.260;2023-03-23T01:11:20;16.40;99.90
54006;DHT22;39919;38.160;-122.260;2023-03-23T01:13:51;16.30;97.90
54006;DHT22;39919;38.160;-122.260;2023-03-23T01:16:21;16.30;98.60
54006;DHT22;39919;38.160;-122.260;2023-03-23T01:18:51;16.30;99.10
54006;DHT22;39919;38.160;-122.260;2023-03-23T01:21:21;16.20;99.40
54006;DHT22;39919;38.160;-122.260;2023-03-23T01:23:51;16.20;99.60
54006;DHT22;39919;38.160;-122.260;2023-03-23T01:26:23;16.10;99.70
54006;DHT22;39919;38.160;-122.260;2023-03-23T01:28:54;16.10;99.80
54006;DHT22;39919;38.160;-122.260;2023-03-23T01:31:27;16.10;99.90
54006;DHT22;39919;38.160;-122.260;2023-03-23T01:33:57;16.10;99.90
54006;DHT22;39919;38.160;-122.260;2023-03-23T01:36:27;16.00;99.90
54006;DHT22;39919;38.160;-122.260;2023-03-23T01:39:00;16.00;99.90
54006;DHT22;39919;38.160;-122.260;2023-03-23T01:41:30;16.00;99.90
54006;DHT22;39919;38.160;-122.260;2023-03-23T01:44:04;15.90;99.90
54006;DHT22;39919;38.160;-122.260;2023-03-23T01:46:34;15.90;99.90
54006;DHT22;39919;38.160;-122.260;2023-03-23T01:49:07;15.80;99.90
54006;DHT22;39919;38.160;-122.260;2023-03-23T01:51:40;15.80;99.90
54006;DHT22;39919;38.160;-122.260;2023-03-23T01:54:12;15.70;99.90
54006;DHT22;39919;38.160;-122.260;2023-03-23T01:56:49;15.70;99.90
54006;DHT22;39919;38.160;-122.260;2023-03-23T01:59:21;15.60;99.90
54006;DHT22;39919;38.160;-122.260;2023-03-23T02:01:53;15.60;99.90
54006;DHT22;39919;38.160;-122.260;2023-03-23T02:04:24;15.50;99.90
54006;DHT22;39919;38.160;-122.260;2023-03-23T02:06:54;15.40;99.90
54006;DHT22;39919;38.160;-122.260;2023-03-23T02:09:25;15.30;99.90
54006;DHT22;39919;38.160;-122.260;2023-03-23T02:11:55;15.30;99.90
54006;DHT22;39919;38.160;-122.260;2023-03-23T02:14:28;15.20;99.90
54006;DHT22;39919;38.160;-122.260;2023-03-23T02:17:02;15.10;99.90
54006;DHT22;39919;38.160;-122.260;2023-03-23T02:22:52;15.00;99.90
54006;DHT22;39919;38.160;-122.260;2023-03-23T02:28:49;14.90;99.90
54006;DHT22;39919;38.160;-122.260;2023-03-23T02:31:51;14.80;99.90
54006;DHT22;39919;38.160;-122.260;2023-03-23T02:34:29;14.70;99.90
54006;DHT22;39919;38.160;-122.260;2023-03-23T02:37:02;14.60;99.90
54006;DHT22;39919;38.160;-122.260;2023-03-23T02:39:34;14.50;99.90
54006;DHT22;39919;38.160;-122.260;2023-03-23T02:42:07;14.50;99.90
54006;DHT22;39919;38.160;-122.260;2023-03-23T02:44:39;14.40;99.90
54006;DHT22;39919;38.160;-122.260;2023-03-23T02:47:13;14.30;99.90
54006;DHT22;39919;38.160;-122.260;2023-03-23T02:49:46;14.20;99.90
54006;DHT22;39919;38.160;-122.260;2023-03-23T02:52:19;14.10;99.90
54006;DHT22;39919;38.160;-122.260;2023-03-23T02:54:50;14.10;99.90
54006;DHT22;39919;38.160;-122.260;2023-03-23T02:57:21;14.00;99.90
54006;DHT22;39919;38.160;-122.260;2023-03-23T02:59:51;13.90;99.90
54006;DHT22;39919;38.160;-122.260;2023-03-23T03:02:22;13.80;99.90
54006;DHT22;39919;38.160;-122.260;2023-03-23T03:04:58;13.80;99.90
54006;DHT22;39919;38.160;-122.260;2023-03-23T03:07:37;13.70;99.90
54006;DHT22;39919;38.160;-122.260;2023-03-23T03:10:19;13.60;99.90
54006;DHT22;39919;38.160;-122.260;2023-03-23T03:12:55;13.60;99.90
54006;DHT22;39919;38.160;-122.260;2023-03-23T03:15:30;13.50;99.90
54006;DHT22;39919;38.160;-122.260;2023-03-23T03:18:07;13.50;99.90
54006;DHT22;39919;38.160;-122.260;2023-03-23T03:20:45;13.40;99.90
54006;DHT22;39919;38.160;-122.260;2023-03-23T03:23:16;13.30;99.90
54006;DHT22;39919;38.160;-122.260;2023-03-23T03:25:47;13.20;99.90
54006;DHT22;39919;38.160;-122.260;2023-03-23T03:28:18;13.20;99.90
54006;DHT22;39919;38.160;-122.260;2023-03-23T03:30:52;13.20;99.90
54006;DHT22;39919;38.160;-122.260;2023-03-23T03:33:23;13.10;99.90
54006;DHT22;39919;38.160;-122.260;2023-03-23T03:35:57;13.00;99.90
54006;DHT22;39919;38.160;-122.260;2023-03-23T03:38:27;13.00;99.90
54006;DHT22;39919;38.160;-122.260;2023-03-23T03:40:57;12.90;99.90
54006;DHT22;39919;38.160;-122.260;2023-03-23T03:43:29;12.90;99.90
54006;DHT22;39919;38.160;-122.260;2023-03-23T03:45:59;12.80;99.90
54006;DHT22;39919;38.160;-122.260;2023-03-23T03:48:28;12.70;99.90
54006;DHT22;39919;38.160;-122.260;2023-03-23T03:50:59;12.70;99.90
54006;DHT22;39919;38.160;-122.260;2023-03-23T03:53:29;12.60;99.90
54006;DHT22;39919;38.160;-122.260;2023-03-23T03:55:58;12.70;99.90
54006;DHT22;39919;38.160;-122.260;2023-03-23T03:58:30;12.50;99.90
54006;DHT22;39919;38.160;-122.260;2023-03-23T04:01:00;12.40;99.90
54006;DHT22;39919;38.160;-122.260;2023-03-23T04:03:32;12.30;99.90
54006;DHT22;39919;38.160;-122.260;2023-03-23T04:06:05;12.30;99.90
54006;DHT22;39919;38.160;-122.260;2023-03-23T04:08:34;12.30;99.90
54006;DHT22;39919;38.160;-122.260;2023-03-23T04:11:05;12.20;99.90
54006;DHT22;39919;38.160;-122.260;2023-03-23T04:13:34;12.20;99.90
54006;DHT22;39919;38.160;-122.260;2023-03-23T04:16:04;12.10;99.90
54006;DHT22;39919;38.160;-122.260;2023-03-23T04:18:35;12.10;99.90
54006;DHT22;39919;38.160;-122.260;2023-03-23T04:21:06;12.00;99.90
54006;DHT22;39919;38.160;-122.260;2023-03-23T04:23:37;12.00;99.90
54006;DHT22;39919;38.160;-122.260;2023-03-23T04:26:06;11.90;99.90
54006;DHT22;39919;38.160;-122.260;2023-03-23T04:28:35;11.90;99.90
54006;DHT22;39919;38.160;-122.260;2023-03-23T04:31:05;11.90;99.90
54006;DHT22;39919;38.160;-122.260;2023-03-23T04:33:35;11.80;99.90
54006;DHT22;39919;38.160;-122.260;2023-03-23T04:36:07;11.80;99.90
54006;DHT22;39919;38.160;-122.260;2023-03-23T04:38:36;11.80;99.90
54006;DHT22;39919;38.160;-122.260;2023-03-23T04:41:05;11.70;99.90
54006;DHT22;39919;38.160;-122.260;2023-03-23T04:43:34;11.70;99.90
54006;DHT22;39919;38.160;-122.260;2023-03-23T04:46:09;11.70;99.90
54006;DHT22;39919;38.160;-122.260;2023-03-23T04:48:38;11.70;99.90
54006;DHT22;39919;38.160;-122.260;2023-03-23T04:51:09;11.70;99.90
54006;DHT22;39919;38.160;-122.260;2023-03-23T04:53:40;11.60;99.90
54006;DHT22;39919;38.160;-122.260;2023-03-23T04:56:09;11.60;99.90
54006;DHT22;39919;38.160;-122.260;2023-03-23T04:58:40;11.60;99.90
54006;DHT22;39919;38.160;-122.260;2023-03-23T05:01:10;11.50;99.90
54006;DHT22;39919;38.160;-122.260;2023-03-23T05:03:42;11.50;99.90
54006;DHT22;39919;38.160;-122.260;2023-03-23T05:06:13;11.50;99.90
54006;DHT22;39919;38.160;-122.260;2023-03-23T05:08:42;11.50;99.90
54006;DHT22;39919;38.160;-122.260;2023-03-23T05:11:11;11.40;99.90
54006;DHT22;39919;38.160;-122.260;2023-03-23T05:13:40;11.30;99.90
54006;DHT22;39919;38.160;-122.260;2023-03-23T05:16:10;11.40;99.90
54006;DHT22;39919;38.160;-122.260;2023-03-23T05:18:40;11.30;99.90
54006;DHT22;39919;38.160;-122.260;2023-03-23T05:21:13;11.20;99.90
54006;DHT22;39919;38.160;-122.260;2023-03-23T05:23:43;11.20;99.90
54006;DHT22;39919;38.160;-122.260;2023-03-23T05:26:12;11.20;99.90
54006;DHT22;39919;38.160;-122.260;2023-03-23T05:28:41;11.20;99.90
54006;DHT22;39919;38.160;-122.260;2023-03-23T05:31:10;11.10;99.90
54006;DHT22;39919;38.160;-122.260;2023-03-23T05:33:39;11.20;99.90
54006;DHT22;39919;38.160;-122.260;2023-03-23T05:36:09;11.10;99.90
54006;DHT22;39919;38.160;-122.260;2023-03-23T05:38:41;11.10;99.90
54006;DHT22;39919;38.160;-122.260;2023-03-23T05:41:14;11.10;99.90
54006;DHT22;39919;38.160;-122.260;2023-03-23T05:43:44;11.10;99.90
54006;DHT22;39919;38.160;-122.260;2023-03-23T05:46:13;10.90;99.90
54006;DHT22;39919;38.160;-122.260;2023-03-23T05:48:44;11.00;99.90
54006;DHT22;39919;38.160;-122.260;2023-03-23T05:51:14;10.90;99.90
54006;DHT22;39919;38.160;-122.260;2023-03-23T05:53:46;10.90;99.90
54006;DHT22;39919;38.160;-122.260;2023-03-23T05:56:15;10.80;99.90
54006;DHT22;39919;38.160;-122.260;2023-03-23T05:58:44;10.80;99.90
54006;DHT22;39919;38.160;-122.260;2023-03-23T06:01:14;10.90;99.90
54006;DHT22;39919;38.160;-122.260;2023-03-23T06:03:43;10.80;99.90
54006;DHT22;39919;38.160;-122.260;2023-03-23T06:06:16;10.70;99.90
54006;DHT22;39919;38.160;-122.260;2023-03-23T06:08:49;10.70;99.90
54006;DHT22;39919;38.160;-122.260;2023-03-23T06:11:19;10.80;99.90
54006;DHT22;39919;38.160;-122.260;2023-03-23T06:13:49;10.70;99.90
54006;DHT22;39919;38.160;-122.260;2023-03-23T06:16:18;10.70;99.90
54006;DHT22;39919;38.160;-122.260;2023-03-23T06:18:48;10.60;99.90
54006;DHT22;39919;38.160;-122.260;2023-03-23T06:21:17;10.60;99.90
54006;DHT22;39919;38.160;-122.260;2023-03-23T06:23:50;10.60;99.90
54006;DHT22;39919;38.160;-122.260;2023-03-23T06:26:20;10.60;99.90
54006;DHT22;39919;38.160;-122.260;2023-03-23T06:28:50;10.60;99.90
54006;DHT22;39919;38.160;-122.260;2023-03-23T06:31:19;10.50;99.90
54006;DHT22;39919;38.160;-122.260;2023-03-23T06:33:49;10.60;99.90
54006;DHT22;39919;38.160;-122.260;2023-03-23T06:36:18;10.50;99.90
54006;DHT22;39919;38.160;-122.260;2023-03-23T06:38:49;10.50;99.90
54006;DHT22;39919;38.160;-122.260;2023-03-23T06:41:18;10.60;99.90
54006;DHT22;39919;38.160;-122.260;2023-03-23T06:43:47;10.60;99.90
54006;DHT22;39919;38.160;-122.260;2023-03-23T06:46:16;10.60;99.90
54006;DHT22;39919;38.160;-122.260;2023-03-23T06:48:47;10.60;99.90
54006;DHT22;39919;38.160;-122.260;2023-03-23T06:51:18;10.60;99.90
54006;DHT22;39919;38.160;-122.260;2023-03-23T06:53:50;10.60;99.90
54006;DHT22;39919;38.160;-122.260;2023-03-23T06:56:19;10.60;99.90
54006;DHT22;39919;38.160;-122.260;2023-03-23T06:58:48;10.70;99.90
54006;DHT22;39919;38.160;-122.260;2023-03-23T07:01:17;10.70;99.90
54006;DHT22;39919;38.160;-122.260;2023-03-23T07:03:47;10.70;99.90
54006;DHT22;39919;38.160;-122.260;2023-03-23T07:06:16;10.70;99.90
54006;DHT22;39919;38.160;-122.260;2023-03-23T07:08:46;10.70;99.90
54006;DHT22;39919;38.160;-122.260;2023-03-23T07:11:16;10.70;99.90
54006;DHT22;39919;38.160;-122.260;2023-03-23T07:13:45;10.80;99.90
54006;DHT22;39919;38.160;-122.260;2023-03-23T07:16:17;10.80;99.90
54006;DHT22;39919;38.160;-122.260;2023-03-23T07:18:46;10.80;99.90
54006;DHT22;39919;38.160;-122.260;2023-03-23T07:21:15;10.80;99.90
54006;DHT22;39919;38.160;-122.260;2023-03-23T07:23:45;10.80;99.90
54006;DHT22;39919;38.160;-122.260;2023-03-23T07:26:16;10.80;99.90
54006;DHT22;39919;38.160;-122.260;2023-03-23T07:28:45;10.80;99.90
54006;DHT22;39919;38.160;-122.260;2023-03-23T07:31:14;10.80;99.90
54006;DHT22;39919;38.160;-122.260;2023-03-23T07:33:44;11.00;99.90
54006;DHT22;39919;38.160;-122.260;2023-03-23T07:36:19;11.00;99.90
54006;DHT22;39919;38.160;-122.260;2023-03-23T07:38:48;11.00;99.90
54006;DHT22;39919;38.160;-122.260;2023-03-23T07:41:19;11.00;99.90
54006;DHT22;39919;38.160;-122.260;2023-03-23T07:43:49;11.00;99.90
54006;DHT22;39919;38.160;-122.260;2023-03-23T07:46:18;11.10;99.90
54006;DHT22;39919;38.160;-122.260;2023-03-23T07:48:47;11.00;99.90
54006;DHT22;39919;38.160;-122.260;2023-03-23T07:51:17;11.00;99.90
54006;DHT22;39919;38.160;-122.260;2023-03-23T07:53:46;10.90;99.90
54006;DHT22;39919;38.160;-122.260;2023-03-23T07:56:18;10.90;99.90
54006;DHT22;39919;38.160;-122.260;2023-03-23T07:58:48;11.00;99.90
54006;DHT22;39919;38.160;-122.260;2023-03-23T08:01:18;11.10;99.90
54006;DHT22;39919;38.160;-122.260;2023-03-23T08:03:47;11.00;99.90
54006;DHT22;39919;38.160;-122.260;2023-03-23T08:06:16;11.00;99.90
54006;DHT22;39919;38.160;-122.260;2023-03-23T08:08:46;11.00;99.90
54006;DHT22;39919;38.160;-122.260;2023-03-23T08:11:18;11.00;99.90
54006;DHT22;39919;38.160;-122.260;2023-03-23T08:13:49;11.00;99.90
54006;DHT22;39919;38.160;-122.260;2023-03-23T08:16:18;11.00;99.90
54006;DHT22;39919;38.160;-122.260;2023-03-23T08:18:47;11.00;99.90
54006;DHT22;39919;38.160;-122.260;2023-03-23T08:21:17;11.00;99.90
54006;DHT22;39919;38.160;-122.260;2023-03-23T08:23:47;10.90;99.90
54006;DHT22;39919;38.160;-122.260;2023-03-23T08:26:19;11.00;99.90
54006;DHT22;39919;38.160;-122.260;2023-03-23T08:28:49;10.90;99.90
54006;DHT22;39919;38.160;-122.260;2023-03-23T08:31:19;10.90;99.90
54006;DHT22;39919;38.160;-122.260;2023-03-23T08:33:48;11.00;99.90
54006;DHT22;39919;38.160;-122.260;2023-03-23T08:36:18;10.90;99.90
54006;DHT22;39919;38.160;-122.260;2023-03-23T08:38:47;10.90;99.90
54006;DHT22;39919;38.160;-122.260;2023-03-23T08:41:20;10.90;99.90
54006;DHT22;39919;38.160;-122.260;2023-03-23T08:43:50;10.80;99.90
54006;DHT22;39919;38.160;-122.260;2023-03-23T08:46:20;10.90;99.90
54006;DHT22;39919;38.160;-122.260;2023-03-23T08:48:50;10.80;99.90
54006;DHT22;39919;38.160;-122.260;2023-03-23T08:51:20;10.80;99.90
54006;DHT22;39919;38.160;-122.260;2023-03-23T08:53:51;10.80;99.90
54006;DHT22;39919;38.160;-122.260;2023-03-23T08:56:23;10.60;99.90
54006;DHT22;39919;38.160;-122.260;2023-03-23T08:58:53;10.70;99.90
54006;DHT22;39919;38.160;-122.260;2023-03-23T09:01:22;10.70;99.90
54006;DHT22;39919;38.160;-122.260;2023-03-23T09:03:53;10.60;99.90
54006;DHT22;39919;38.160;-122.260;2023-03-23T09:06:22;10.60;99.90
54006;DHT22;39919;38.160;-122.260;2023-03-23T09:08:51;10.60;99.90
54006;DHT22;39919;38.160;-122.260;2023-03-23T09:11:24;10.60;99.90
54006;DHT22;39919;38.160;-122.260;2023-03-23T09:13:53;10.40;99.90
54006;DHT22;39919;38.160;-122.260;2023-03-23T09:16:23;10.40;99.90
54006;DHT22;39919;38.160;-122.260;2023-03-23T09:18:55;10.30;99.90
54006;DHT22;39919;38.160;-122.260;2023-03-23T09:21:25;10.40;99.90
54006;DHT22;39919;38.160;-122.260;2023-03-23T09:23:56;10.30;99.90
54006;DHT22;39919;38.160;-122.260;2023-03-23T09:26:27;10.20;99.90
54006;DHT22;39919;38.160;-122.260;2023-03-23T09:28:57;10.20;99.90
54006;DHT22;39919;38.160;-122.260;2023-03-23T09:31:26;10.10;99.90
54006;DHT22;39919;38.160;-122.260;2023-03-23T09:33:59;10.10;99.90
54006;DHT22;39919;38.160;-122.260;2023-03-23T09:36:30;10.00;99.90
54006;DHT22;39919;38.160;-122.260;2023-03-23T09:38:59;10.00;99.90
54006;DHT22;39919;38.160;-122.260;2023-03-23T09:41:48;10.00;99.90
54006;DHT22;39919;38.160;-122.260;2023-03-23T09:44:25;10.00;99.90
54006;DHT22;39919;38.160;-122.260;2023-03-23T09:47:01;9.90;99.90
54006;DHT22;39919;38.160;-122.260;2023-03-23T09:49:35;9.80;99.90
54006;DHT22;39919;38.160;-122.260;2023-03-23T09:52:10;9.80;99.90
54006;DHT22;39919;38.160;-122.260;2023-03-23T09:54:42;9.80;99.90
54006;DHT22;39919;38.160;-122.260;2023-03-23T09:57:16;9.70;99.90
54006;DHT22;39919;38.160;-122.260;2023-03-23T09:59:54;9.80;99.90
54006;DHT22;39919;38.160;-122.260;2023-03-23T10:02:30;9.60;99.90
54006;DHT22;39919;38.160;-122.260;2023-03-23T10:08:10;9.60;99.90
54006;DHT22;39919;38.160;-122.260;2023-03-23T10:10:48;9.60;99.90
54006;DHT22;39919;38.160;-122.260;2023-03-23T10:13:27;9.40;99.90
54006;DHT22;39919;38.160;-122.260;2023-03-23T10:15:59;9.50;99.90
54006;DHT22;39919;38.160;-122.260;2023-03-23T10:18:32;9.50;99.90
54006;DHT22;39919;38.160;-122.260;2023-03-23T10:21:02;9.40;99.90
54006;DHT22;39919;38.160;-122.260;2023-03-23T10:23:49;9.30;99.90
54006;DHT22;39919;38.160;-122.260;2023-03-23T10:26:32;9.30;99.90
54006;DHT22;39919;38.160;-122.260;2023-03-23T10:29:12;9.20;99.90
54006;DHT22;39919;38.160;-122.260;2023-03-23T10:31:46;9.20;99.90
54006;DHT22;39919;38.160;-122.260;2023-03-23T10:34:22;9.30;99.90
54006;DHT22;39919;38.160;-122.260;2023-03-23T10:37:00;9.20;99.90
54006;DHT22;39919;38.160;-122.260;2023-03-23T10:39:37;9.20;99.90
54006;DHT22;39919;38.160;-122.260;2023-03-23T10:42:08;9.10;99.90
54006;DHT22;39919;38.160;-122.260;2023-03-23T10:44:39;9.20;99.90
54006;DHT22;39919;38.160;-122.260;2023-03-23T10:47:09;9.20;99.90
54006;DHT22;39919;38.160;-122.260;2023-03-23T10:49:42;9.00;99.90
54006;DHT22;39919;38.160;-122.260;2023-03-23T10:52:27;9.00;99.90
54006;DHT22;39919;38.160;-122.260;2023-03-23T10:55:03;9.00;99.90
54006;DHT22;39919;38.160;-122.260;2023-03-23T15:56:24;10.40;99.90
54006;DHT22;39919;38.160;-122.260;2023-03-23T15:58:53;10.70;99.90
54006;DHT22;39919;38.160;-122.260;2023-03-23T16:08:55;15.10;99.90
54006;DHT22;39919;38.160;-122.260;2023-03-23T16:11:27;15.60;99.90
54006;DHT22;39919;38.160;-122.260;2023-03-23T16:13:57;16.70;98.50
54006;DHT22;39919;38.160;-122.260;2023-03-23T16:16:29;17.90;99.90
54006;DHT22;39919;38.160;-122.260;2023-03-23T16:19:00;18.80;99.90
54006;DHT22;39919;38.160;-122.260;2023-03-23T16:21:30;19.70;99.90
54006;DHT22;39919;38.160;-122.260;2023-03-23T20:03:40;23.60;49.90
54006;DHT22;39919;38.160;-122.260;2023-03-23T20:06:12;23.30;50.30
54006;DHT22;39919;38.160;-122.260;2023-03-23T20:08:43;22.90;50.10
54006;DHT22;39919;38.160;-122.260;2023-03-23T20:11:16;22.50;50.50
54006;DHT22;39919;38.160;-122.260;2023-03-23T20:13:46;22.10;50.60
54006;DHT22;39919;38.160;-122.260;2023-03-23T20:16:17;21.70;52.20
54006;DHT22;39919;38.160;-122.260;2023-03-23T20:18:49;21.40;52.50
54006;DHT22;39919;38.160;-122.260;2023-03-23T20:21:19;21.10;52.20
54006;DHT22;39919;38.160;-122.260;2023-03-23T20:23:52;20.90;53.10
54006;DHT22;39919;38.160;-122.260;2023-03-23T20:26:28;20.60;53.30
54006;DHT22;39919;38.160;-122.260;2023-03-23T20:28:58;20.30;54.50
54006;DHT22;39919;38.160;-122.260;2023-03-23T20:31:29;20.10;53.60
54006;DHT22;39919;38.160;-122.260;2023-03-23T20:34:01;19.90;54.10
54006;DHT22;39919;38.160;-122.260;2023-03-23T20:36:32;19.70;53.80
54006;DHT22;39919;38.160;-122.260;2023-03-23T20:39:02;19.50;55.80
54006;DHT22;39919;38.160;-122.260;2023-03-23T20:41:35;19.40;55.50
54006;DHT22;39919;38.160;-122.260;2023-03-23T20:44:05;19.20;54.70
54006;DHT22;39919;38.160;-122.260;2023-03-23T20:46:35;19.10;56.30
54006;DHT22;39919;38.160;-122.260;2023-03-23T20:49:04;19.00;57.50
54006;DHT22;39919;38.160;-122.260;2023-03-23T20:51:34;18.90;56.50
54006;DHT22;39919;38.160;-122.260;2023-03-23T20:54:03;18.80;57.80
54006;DHT22;39919;38.160;-122.260;2023-03-23T20:56:34;18.80;58.40
54006;DHT22;39919;38.160;-122.260;2023-03-23T20:59:06;18.70;57.70
54006;DHT22;39919;38.160;-122.260;2023-03-23T21:01:35;18.60;57.50
54006;DHT22;39919;38.160;-122.260;2023-03-23T21:04:06;18.60;57.70
54006;DHT22;39919;38.160;-122.260;2023-03-23T21:06:41;18.50;59.00
54006;DHT22;39919;38.160;-122.260;2023-03-23T21:09:11;18.40;58.10
54006;DHT22;39919;38.160;-122.260;2023-03-23T21:11:43;18.30;57.10
54006;DHT22;39919;38.160;-122.260;2023-03-23T21:14:12;18.20;58.70
54006;DHT22;39919;38.160;-122.260;2023-03-23T21:16:42;18.20;59.60
54006;DHT22;39919;38.160;-122.260;2023-03-23T21:19:12;18.10;59.80
54006;DHT22;39919;38.160;-122.260;2023-03-23T21:21:41;18.00;58.80
54006;DHT22;39919;38.160;-122.260;2023-03-23T21:24:11;17.90;57.40
54006;DHT22;39919;38.160;-122.260;2023-03-23T21:26:44;17.80;58.60
54006;DHT22;39919;38.160;-122.260;2023-03-23T21:29:13;17.70;57.60
54006;DHT22;39919;38.160;-122.260;2023-03-23T21:31:42;17.60;57.40
54006;DHT22;39919;38.160;-122.260;2023-03-23T21:34:12;17.60;58.10
54006;DHT22;39919;38.160;-122.260;2023-03-23T21:36:44;17.50;59.00
54006;DHT22;39919;38.160;-122.260;2023-03-23T21:39:13;17.50;58.50
54006;DHT22;39919;38.160;-122.260;2023-03-23T21:41:44;17.40;58.30
54006;DHT22;39919;38.160;-122.260;2023-03-23T21:44:15;17.30;59.70
54006;DHT22;39919;38.160;-122.260;2023-03-23T21:46:45;17.30;59.10
54006;DHT22;39919;38.160;-122.260;2023-03-23T21:49:14;17.30;59.80
54006;DHT22;39919;38.160;-122.260;2023-03-23T21:51:43;17.20;59.40
54006;DHT22;39919;38.160;-122.260;2023-03-23T21:54:14;17.20;60.00
54006;DHT22;39919;38.160;-122.260;2023-03-23T21:56:46;17.10;60.60
54006;DHT22;39919;38.160;-122.260;2023-03-23T21:59:15;17.10;61.00
54006;DHT22;39919;38.160;-122.260;2023-03-23T22:01:44;17.10;61.10
54006;DHT22;39919;38.160;-122.260;2023-03-23T22:04:13;17.00;61.20
54006;DHT22;39919;38.160;-122.260;2023-03-23T22:06:43;17.00;61.60
54006;DHT22;39919;38.160;-122.260;2023-03-23T22:09:13;16.90;62.20
54006;DHT22;39919;38.160;-122.260;2023-03-23T22:11:44;16.90;62.70
54006;DHT22;39919;38.160;-122.260;2023-03-23T22:14:14;16.90;62.10
54006;DHT22;39919;38.160;-122.260;2023-03-23T22:16:43;16.80;62.40
54006;DHT22;39919;38.160;-122.260;2023-03-23T22:19:12;16.80;62.00
54006;DHT22;39919;38.160;-122.260;2023-03-23T22:21:42;16.80;62.80
54006;DHT22;39919;38.160;-122.260;2023-03-23T22:24:12;16.70;63.50
54006;DHT22;39919;38.160;-122.260;2023-03-23T22:26:41;16.70;62.90
54006;DHT22;39919;38.160;-122.260;2023-03-23T22:29:13;16.70;63.10
54006;DHT22;39919;38.160;-122.260;2023-03-23T22:31:43;16.60;62.10
54006;DHT22;39919;38.160;-122.260;2023-03-23T22:34:13;16.60;62.90
54006;DHT22;39919;38.160;-122.260;2023-03-23T22:36:42;16.60;63.40
54006;DHT22;39919;38.160;-122.260;2023-03-23T22:39:12;16.60;63.50
54006;DHT22;39919;38.160;-122.260;2023-03-23T22:41:41;16.50;62.70
54006;DHT22;39919;38.160;-122.260;2023-03-23T22:44:14;16.50;62.60
54006;DHT22;39919;38.160;-122.260;2023-03-23T22:46:44;16.50;63.30
54006;DHT22;39919;38.160;-122.260;2023-03-23T22:49:13;16.50;63.20
54006;DHT22;39919;38.160;-122.260;2023-03-23T22:51:43;16.50;63.40
54006;DHT22;39919;38.160;-122.260;2023-03-23T22:54:12;16.50;63.50
54006;DHT22;39919;38.160;-122.260;2023-03-23T22:56:42;16.40;63.70
54006;DHT22;39919;38.160;-122.260;2023-03-23T22:59:12;16.40;63.30
54006;DHT22;39919;38.160;-122.260;2023-03-23T23:01:42;16.40;64.00
54006;DHT22;39919;38.160;-122.260;2023-03-23T23:04:11;16.30;64.30
54006;DHT22;39919;38.160;-122.260;2023-03-23T23:06:40;16.30;64.80
54006;DHT22;39919;38.160;-122.260;2023-03-23T23:09:10;16.30;64.60
54006;DHT22;39919;38.160;-122.260;2023-03-23T23:11:39;16.20;64.90
54006;DHT22;39919;38.160;-122.260;2023-03-23T23:14:08;16.20;65.50
54006;DHT22;39919;38.160;-122.260;2023-03-23T23:16:39;16.20;65.40
54006;DHT22;39919;38.160;-122.260;2023-03-23T23:19:08;16.20;65.20
54006;DHT22;39919;38.160;-122.260;2023-03-23T23:21:37;16.20;65.30
54006;DHT22;39919;38.160;-122.260;2023-03-23T23:24:07;16.20;65.70
54006;DHT22;39919;38.160;-122.260;2023-03-23T23:26:36;16.20;65.20
54006;DHT22;39919;38.160;-122.260;2023-03-23T23:29:05;16.30;65.40
54006;DHT22;39919;38.160;-122.260;2023-03-23T23:31:35;16.30;65.30
54006;DHT22;39919;38.160;-122.260;2023-03-23T23:34:06;16.30;64.90
54006;DHT22;39919;38.160;-122.260;2023-03-23T23:36:35;16.30;64.80
54006;DHT22;39919;38.160;-122.260;2023-03-23T23:39:04;16.30;65.20
54006;DHT22;39919;38.160;-122.260;2023-03-23T23:41:34;16.20;65.20
54006;DHT22;39919;38.160;-122.260;2023-03-23T23:44:04;16.10;65.40
54006;DHT22;39919;38.160;-122.260;2023-03-23T23:46:33;16.00;65.20
54006;DHT22;39919;38.160;-122.260;2023-03-23T23:49:02;15.90;65.60
54006;DHT22;39919;38.160;-122.260;2023-03-23T23:51:35;15.90;65.80
54006;DHT22;39919;38.160;-122.260;2023-03-23T23:54:05;15.80;65.70
54006;DHT22;39919;38.160;-122.260;2023-03-23T23:56:34;15.80;65.00
54006;DHT22;39919;38.160;-122.260;2023-03-23T23:59:03;15.70;63.60
